Impacts METAR Board INFO
IDs:

KPDX - Portland Intl Arpt, OR, US

Updated at: 0421 UTC 21 Jan 2018
Potential Impact None Slight Moderate High
Time20/16Z 20/17Z 20/18Z 20/19Z 20/20Z 20/21Z 20/22Z 20/23Z 21/00Z 21/01Z 21/02Z 21/03Z 21/04Z
VIS10 10 10 10 10 10 10 10 10 10 10 10 10
CIG100 60 40 35 39 23 23 36 39 33 40 55 210
CoverBKNOVCOVCOVCOVCOVCOVCBKNBKNBKNOVCBKNBKN
FltCatVFRVFRVFRVFRVFRMVFRMVFRVFRVFRVFRVFRVFRVFR
WX--------------------------
WDir170170190190210200200190190190190170170
WSpd6 7 10 10 11 10 14 13 14 10 11 10 10
WGst-- -- -- -- -- -- 21 19 -- -- -- -- --
Raw hourly METARs
KPDX 201553Z 17006KT 10SM FEW015 SCT040 BKN100 06/04 A3013 RMK AO2 SLP200 T00610039
KPDX 201700Z 17007KT 10SM SCT013 BKN060 OVC080 07/04 A3014 RMK AO2 T00670039
KPDX 201753Z 19010KT 10SM SCT013 BKN040 OVC050 07/04 A3015 RMK AO2 SLP207 T00720039 10072 20061 53009
KPDX 201853Z 19010KT 10SM SCT020 OVC035 08/04 A3015 RMK AO2 SLP209 T00780044
KPDX 201953Z 21011KT 10SM FEW021 OVC039 08/04 A3014 RMK AO2 SLP207 T00830044
KPDX 202053Z 20010KT 10SM BKN023 BKN043 OVC070 09/05 A3013 RMK AO2 SLP201 T00940050 58006
KPDX 202153Z 20014G21KT 10SM BKN023 BKN030 OVC070 09/04 A3011 RMK AO2 SLP197 T00940044
KPDX 202253Z 19013G19KT 10SM SCT025 BKN036 BKN050 09/04 A3011 RMK AO2 SLP196 T00940044
KPDX 202353Z 19014KT 10SM SCT026 BKN039 BKN055 09/04 A3011 RMK AO2 SLP196 T00940044 10100 20072 55004
KPDX 210053Z 19010KT 10SM SCT026 BKN033 BKN055 BKN150 09/04 A3011 RMK AO2 RAB18E37 SLP196 P0001 T00890044
KPDX 210153Z 19011KT 10SM SCT028 BKN040 OVC050 09/04 A3012 RMK AO2 SLP197 T00890044
KPDX 210253Z 17010KT 10SM FEW032 SCT039 BKN055 BKN130 08/04 A3011 RMK AO2 SLP194 60001 T00830044 58002
KPDX 210353Z 17010KT 10SM FEW040 BKN210 08/04 A3011 RMK AO2 SLP194 T00830039